ADDS METAR Data INFO
IDs: Format: Raw Decoded Include TAF

Data at: 0115 UTC 21 Oct 2017

KBTL 210053Z 16006KT 10SM CLR 17/11 A3012 RMK AO2 SLP202 T01670111
KBTL 202353Z 17004KT 10SM CLR 19/11 A3013 RMK AO2 SLP205 T01890111 10244 20172 55004
KBTL 202253Z 18004KT 10SM CLR 20/11 A3013 RMK AO2 SLP203 T02000111
KBTL 202153Z 20009KT 10SM CLR 22/11 A3013 RMK AO2 SLP204 T02220106
KBTL 202053Z 20013G17KT 10SM CLR 23/11 A3015 RMK AO2 SLP208 T02330111 56014
KBTL 201953Z 19014KT 10SM CLR 24/11 A3015 RMK AO2 SLP209 T02390111
KBTL 201853Z 21011G20KT 10SM CLR 24/11 A3017 RMK AO2 SLP216 T02390111
KBTL 201753Z 20013KT 10SM CLR 23/11 A3019 RMK AO2 SLP222 T02330111 10233 20083 58019
KBTL 201653Z 21014KT 10SM CLR 22/11 A3022 RMK AO2 SLP233 T02220106
KBTL 201553Z 19007KT 10SM CLR 19/10 A3024 RMK AO2 SLP239 T01940100
KBTL 201453Z 19008KT 10SM CLR 17/09 A3024 RMK AO2 SLP242 T01670089 50004
KBTL 201353Z 18004KT 10SM CLR 14/07 A3025 RMK AO2 SLP245 T01390072
KBTL 201253Z 17005KT 10SM CLR 11/04 A3024 RMK AO2 SLP244 T01060044
KBTL 201153Z 16005KT 10SM CLR 08/02 A3023 RMK AO2 SLP240 T00830017 10083 20050 51008
KBTL 201053Z 00000KT 10SM CLR 06/02 A3022 RMK AO2 SLP238 T00610022
KBTL 200953Z 15003KT 10SM CLR 07/02 A3021 RMK AO2 SLP233 T00670022
KBTL 200853Z AUTO 00000KT 10SM CLR 06/02 A3021 RMK AO2 SLP231 T00610022 55001
KBTL 200753Z AUTO 18005KT 10SM CLR 06/03 A3020 RMK AO2 SLP230 T00560033
KBTL 200653Z AUTO 00000KT 10SM CLR 06/03 A3021 RMK AO2 SLP230 T00560028
KBTL 200553Z AUTO 00000KT 10SM CLR 07/03 A3021 RMK AO2 SLP231 T00670028 10117 20050 51004
KBTL 200453Z AUTO 00000KT 10SM CLR 08/02 A3021 RMK AO2 SLP231 T00780017 401940072
KBTL 200353Z AUTO 00000KT 10SM CLR 09/01 A3020 RMK AO2 SLP228 T00890011
KBTL 200253Z AUTO 23004KT 10SM CLR 09/02 A3020 RMK AO2 SLP228 T00890022 51006
KBTL 200153Z 23003KT 10SM CLR 10/02 A3020 RMK AO2 SLP228 T01000022
KBTL 200053Z 21003KT 10SM CLR 10/02 A3019 RMK AO2 SLP226 T01000017
KBTL 192353Z 00000KT 10SM CLR 12/01 A3018 RMK AO2 SLP222 T01170006 10194 20117 51007
KBTL 192253Z 26005KT 10SM CLR 13/M02 A3017 RMK AO2 SLP219 T01331017
KBTL 192153Z 29008KT 10SM CLR 17/M03 A3017 RMK AO2 SLP217 T01721033
KBTL 192053Z 30009KT 10SM CLR 18/M04 A3016 RMK AO2 SLP213 T01831044 53001
KBTL 191953Z 29010KT 10SM CLR 19/M02 A3015 RMK AO2 SLP211 T01891022
KBTL 191853Z 27011KT 10SM CLR 19/M01 A3015 RMK AO2 SLP209 T01891011
KBTL 191814Z 29008KT 10SM CLR 19/M01 A3015 RMK AO2 T01891006
KBTL 191753Z 27010KT 10SM CLR 19/01 A3016 RMK AO2 SLP210 T01890011 10189 20106 50006
KBTL 191653Z 28010KT 10SM CLR 18/06 A3016 RMK AO2 SLP214 T01780061
KBTL 191553Z 28009KT 10SM CLR 17/09 A3015 RMK AO2 SLP211 T01720089
KBTL 191453Z 28008KT 10SM CLR 16/10 A3014 RMK AO2 SLP206 T01560100 51021
KBTL 191353Z 25006KT 10SM CLR 13/09 A3013 RMK AO2 SLP203 T01280094